Time;durP1;ratioP1;P1;durP2;ratioP2;P2;SDS_P1;SDS_P2;PMS_P1;PMS_P2;Temp;Humidity;BMP_temperature;BMP_pressure;BME280_temperature;BME280_humidity;BME280_pressure;Samples;Min_cycle;Max_cycle;Signal;HPM_P1;HPM_P2
2021/04/09 00:01:30;;;;;;;25.13;20.52;;;5.30;62.40;;;;;;5055029;28;20032;-72
2021/04/09 00:03:58;;;;;;;27.40;19.60;;;5.30;62.50;;;;;;5044647;28;20033;-72
2021/04/09 00:06:24;;;;;;;26.30;19.90;;;5.30;62.60;;;;;;5062101;28;20040;-71
2021/04/09 00:08:50;;;;;;;26.55;20.13;;;5.30;62.70;;;;;;5058992;28;20042;-71
2021/04/09 00:11:16;;;;;;;26.73;19.83;;;5.30;62.70;;;;;;5065015;28;20565;-72
2021/04/09 00:13:42;;;;;;;25.80;19.83;;;5.30;62.90;;;;;;5064427;28;20033;-71
2021/04/09 00:16:08;;;;;;;28.15;20.52;;;5.30;62.80;;;;;;5056537;28;20442;-72
2021/04/09 00:18:33;;;;;;;26.52;19.88;;;5.30;62.90;;;;;;5045743;28;20469;-71
2021/04/09 00:20:59;;;;;;;25.85;19.70;;;5.30;62.90;;;;;;5045771;28;20116;-74
2021/04/09 00:23:25;;;;;;;27.25;20.45;;;5.30;63.10;;;;;;5040891;28;20100;-72
2021/04/09 00:25:51;;;;;;;24.98;19.02;;;5.20;63.30;;;;;;5046902;28;20052;-73
2021/04/09 00:28:16;;;;;;;28.05;18.98;;;5.20;63.40;;;;;;5043620;28;20064;-72
2021/04/09 00:30:42;;;;;;;26.23;19.40;;;5.10;63.50;;;;;;5043048;28;20032;-73
2021/04/09 00:33:09;;;;;;;25.50;19.92;;;5.10;63.60;;;;;;5039192;28;20028;-71
2021/04/09 00:35:34;;;;;;;26.30;19.27;;;5.20;63.60;;;;;;5037459;28;20041;-72
2021/04/09 00:38:00;;;;;;;26.35;20.30;;;5.20;63.80;;;;;;5043361;28;20037;-71
2021/04/09 00:40:26;;;;;;;24.38;18.40;;;5.20;63.90;;;;;;5043398;28;20040;-71
2021/04/09 00:42:51;;;;;;;26.02;19.52;;;5.20;64.00;;;;;;5045066;28;20029;-72
2021/04/09 00:45:18;;;;;;;23.88;19.00;;;5.20;64.00;;;;;;5045898;28;20029;-71
2021/04/09 00:47:44;;;;;;;25.75;19.20;;;5.10;64.10;;;;;;5044344;28;20033;-72
2021/04/09 00:50:11;;;;;;;28.88;19.35;;;5.10;64.30;;;;;;5038262;28;20068;-72
2021/04/09 00:52:38;;;;;;;22.98;18.10;;;5.10;64.30;;;;;;5040585;28;20064;-74
2021/04/09 00:55:06;;;;;;;24.92;18.98;;;5.10;64.40;;;;;;5043074;28;20116;-72
2021/04/09 00:57:32;;;;;;;27.38;18.80;;;5.10;64.60;;;;;;5045617;28;20120;-73
2021/04/09 00:59:59;;;;;;;26.63;18.23;;;5.10;64.60;;;;;;5041923;28;20065;-71
2021/04/09 01:02:25;;;;;;;23.30;17.20;;;5.00;64.70;;;;;;5046801;28;20468;-72
2021/04/09 01:04:51;;;;;;;24.67;18.63;;;5.10;64.90;;;;;;5049720;28;20056;-71
2021/04/09 01:07:17;;;;;;;28.42;19.05;;;5.00;65.20;;;;;;5044434;28;20037;-72
2021/04/09 01:09:43;;;;;;;24.50;18.40;;;5.00;65.10;;;;;;5049304;28;20033;-72
2021/04/09 01:12:10;;;;;;;28.60;20.30;;;5.00;65.30;;;;;;5047584;28;20033;-72
2021/04/09 01:14:36;;;;;;;27.08;19.75;;;5.00;65.40;;;;;;5047508;28;20032;-72
2021/04/09 01:17:31;;;;;;;28.65;19.48;;;5.00;65.60;;;;;;5046508;28;20441;-72
2021/04/09 01:20:00;;;;;;;28.23;19.77;;;5.00;65.50;;;;;;5045393;28;20039;-71
2021/04/09 01:22:30;;;;;;;26.15;19.45;;;4.90;65.40;;;;;;5039684;28;20749;-71
2021/04/09 01:25:26;;;;;;;30.10;19.70;;;4.90;65.60;;;;;;5045817;28;20057;-71
2021/04/09 01:28:01;;;;;;;26.38;19.65;;;4.90;65.70;;;;;;5051116;28;20052;-71
2021/04/09 01:30:54;;;;;;;29.63;20.38;;;4.90;65.70;;;;;;5054815;28;20036;-72
2021/04/09 01:33:42;;;;;;;28.45;20.17;;;4.90;65.90;;;;;;5063894;28;20678;-72
2021/04/09 01:36:18;;;;;;;26.10;19.27;;;4.80;66.10;;;;;;5057526;28;20047;-73
2021/04/09 01:38:48;;;;;;;30.65;20.63;;;4.80;66.20;;;;;;5061206;28;20037;-71
2021/04/09 01:41:14;;;;;;;30.63;19.73;;;4.80;66.40;;;;;;5049631;28;20041;-70
2021/04/09 01:43:43;;;;;;;27.25;19.73;;;4.70;66.40;;;;;;5044503;28;20040;-71
2021/04/09 01:46:12;;;;;;;26.58;19.45;;;4.70;66.60;;;;;;5042398;28;20392;-71
2021/04/09 01:48:41;;;;;;;30.67;20.08;;;4.70;66.60;;;;;;5047004;28;20540;-72
2021/04/09 01:51:14;;;;;;;29.42;19.90;;;4.60;66.80;;;;;;5047177;28;20044;-71
2021/04/09 01:53:43;;;;;;;27.50;20.08;;;4.70;66.90;;;;;;5041462;28;20038;-71
2021/04/09 01:56:11;;;;;;;29.10;19.20;;;4.60;67.00;;;;;;5045928;28;20443;-73
2021/04/09 01:58:39;;;;;;;25.77;19.42;;;4.60;67.20;;;;;;5037013;28;20373;-71
2021/04/09 02:01:09;;;;;;;28.98;20.10;;;4.60;67.30;;;;;;5043188;28;20029;-70
2021/04/09 02:03:35;;;;;;;30.58;21.55;;;4.60;67.20;;;;;;5050684;28;20041;-71
2021/04/09 02:06:01;;;;;;;29.27;20.38;;;4.60;67.50;;;;;;5043085;28;20290;-74
2021/04/09 02:08:29;;;;;;;30.17;20.40;;;4.60;67.60;;;;;;5049168;28;20040;-72
2021/04/09 02:10:57;;;;;;;27.95;20.02;;;4.60;67.70;;;;;;5057213;28;20052;-71
2021/04/09 02:13:25;;;;;;;30.70;20.13;;;4.60;68.00;;;;;;5045698;28;20029;-72
2021/04/09 02:15:54;;;;;;;30.48;21.25;;;4.60;67.80;;;;;;5047294;28;20108;-73
2021/04/09 02:18:20;;;;;;;27.98;20.02;;;4.60;67.70;;;;;;5037498;28;20071;-73
2021/04/09 02:20:46;;;;;;;25.98;19.63;;;4.60;67.80;;;;;;5052011;28;20045;-71
2021/04/09 02:23:12;;;;;;;28.25;20.58;;;4.60;67.80;;;;;;5043545;28;20471;-74
2021/04/09 02:25:40;;;;;;;26.30;19.55;;;4.60;68.10;;;;;;5048496;28;20033;-74
2021/04/09 02:28:06;;;;;;;26.90;19.48;;;4.60;68.30;;;;;;5046498;28;20044;-71
2021/04/09 02:30:32;;;;;;;27.90;19.65;;;4.60;68.40;;;;;;5046726;28;20557;-72
2021/04/09 02:32:57;;;;;;;26.77;18.77;;;4.60;68.30;;;;;;5049358;28;20097;-71
2021/04/09 02:35:23;;;;;;;26.33;19.48;;;4.60;68.20;;;;;;5046896;28;20185;-71
2021/04/09 02:37:50;;;;;;;30.10;20.45;;;4.60;68.10;;;;;;5047421;28;20033;-74
2021/04/09 02:40:27;;;;;;;27.92;19.15;;;4.60;68.20;;;;;;5042316;28;20538;-71
2021/04/09 02:42:53;;;;;;;25.10;19.77;;;4.60;68.20;;;;;;5046188;28;20037;-71
2021/04/09 02:45:23;;;;;;;25.58;19.27;;;4.60;68.20;;;;;;5044661;28;20020;-70
2021/04/09 02:47:50;;;;;;;27.23;19.70;;;4.60;68.30;;;;;;5047255;28;20033;-71
2021/04/09 02:50:21;;;;;;;30.48;20.58;;;4.60;68.60;;;;;;5046206;28;20028;-71
2021/04/09 02:53:01;;;;;;;28.08;19.35;;;4.60;68.70;;;;;;5045318;28;20479;-71
2021/04/09 02:55:30;;;;;;;28.33;21.40;;;4.60;68.80;;;;;;5042210;28;20380;-71
2021/04/09 02:57:59;;;;;;;28.23;19.10;;;4.60;69.10;;;;;;5047128;28;20037;-71
2021/04/09 03:00:25;;;;;;;25.40;19.27;;;4.50;69.30;;;;;;5046532;28;20029;-71
2021/04/09 03:02:51;;;;;;;26.25;18.90;;;4.60;69.30;;;;;;5047883;28;20029;-73
2021/04/09 03:05:18;;;;;;;26.75;18.63;;;4.60;69.30;;;;;;5046840;28;20040;-70
2021/04/09 03:07:45;;;;;;;24.38;18.35;;;4.60;69.20;;;;;;5036315;28;20647;-71
2021/04/09 03:10:15;;;;;;;26.90;18.98;;;4.50;69.10;;;;;;5046137;28;20048;-71
2021/04/09 03:12:41;;;;;;;28.02;19.40;;;4.40;69.10;;;;;;5048096;28;20029;-71
2021/04/09 03:15:10;;;;;;;28.90;20.20;;;4.40;69.50;;;;;;5045979;28;20025;-71
2021/04/09 03:17:51;;;;;;;26.08;18.63;;;4.40;69.80;;;;;;5042827;28;20414;-71
2021/04/09 03:20:17;;;;;;;29.10;19.83;;;4.40;69.90;;;;;;5048400;28;20033;-72
2021/04/09 03:22:43;;;;;;;28.75;19.48;;;4.30;70.10;;;;;;5067534;28;20036;-70
2021/04/09 03:25:08;;;;;;;26.38;19.40;;;4.40;70.00;;;;;;5064043;28;20524;-75
2021/04/09 03:27:34;;;;;;;25.52;19.50;;;4.30;69.80;;;;;;5045289;28;20047;-70
2021/04/09 03:30:00;;;;;;;26.65;19.38;;;4.30;69.70;;;;;;5046353;28;20029;-70
2021/04/09 03:32:26;;;;;;;27.45;18.60;;;4.20;69.90;;;;;;5047304;28;20396;-71
2021/04/09 03:34:51;;;;;;;28.05;18.95;;;4.20;70.00;;;;;;5047212;28;20112;-75
2021/04/09 03:37:17;;;;;;;23.95;17.80;;;4.20;70.10;;;;;;5043809;28;20068;-71
2021/04/09 03:39:43;;;;;;;27.58;18.90;;;4.10;70.20;;;;;;5048616;28;20036;-72
2021/04/09 03:42:09;;;;;;;26.52;19.20;;;4.10;70.10;;;;;;5044698;28;20451;-72
2021/04/09 03:44:34;;;;;;;28.23;19.95;;;4.10;70.20;;;;;;5039503;28;20587;-71
2021/04/09 03:47:00;;;;;;;25.42;18.88;;;4.10;70.40;;;;;;5046408;28;20120;-71
2021/04/09 03:49:26;;;;;;;26.13;18.70;;;4.00;70.50;;;;;;5043926;28;20037;-72
2021/04/09 03:51:51;;;;;;;28.00;19.27;;;4.00;70.70;;;;;;5047767;28;20033;-71
2021/04/09 03:54:17;;;;;;;26.27;18.67;;;4.00;70.80;;;;;;5044296;28;20114;-72
2021/04/09 03:56:43;;;;;;;28.48;18.60;;;4.00;71.00;;;;;;5046935;28;20048;-71
2021/04/09 03:59:09;;;;;;;26.20;19.25;;;4.00;70.80;;;;;;5043904;28;20044;-71
2021/04/09 04:01:34;;;;;;;27.50;21.02;;;3.90;70.70;;;;;;5047177;28;20051;-71
2021/04/09 04:04:00;;;;;;;26.33;18.98;;;3.90;70.90;;;;;;5045819;28;20427;-76
2021/04/09 04:06:26;;;;;;;26.80;20.17;;;3.90;71.10;;;;;;5052864;28;20451;-73
2021/04/09 04:08:52;;;;;;;28.05;19.80;;;3.80;71.40;;;;;;5053736;28;20163;-71
2021/04/09 04:11:17;;;;;;;24.45;19.63;;;3.80;71.50;;;;;;5047126;28;20082;-72
2021/04/09 04:13:43;;;;;;;30.52;20.15;;;3.80;71.30;;;;;;5064887;28;20041;-73
2021/04/09 04:16:09;;;;;;;26.65;20.80;;;3.80;71.50;;;;;;5065906;28;20094;-72
2021/04/09 04:18:34;;;;;;;26.17;21.08;;;3.80;71.70;;;;;;5064980;28;20039;-70
2021/04/09 04:21:00;;;;;;;33.30;22.17;;;3.70;71.80;;;;;;5064838;28;20119;-71
2021/04/09 04:23:26;;;;;;;31.42;21.77;;;3.70;71.90;;;;;;5050888;28;20034;-72
2021/04/09 04:25:52;;;;;;;28.42;21.02;;;3.70;72.00;;;;;;5046526;28;20124;-71
2021/04/09 04:28:18;;;;;;;26.77;20.17;;;3.70;72.00;;;;;;5043597;28;20069;-71
2021/04/09 04:30:50;;;;;;;28.92;19.00;;;3.60;72.10;;;;;;5052856;28;20040;-71
2021/04/09 04:33:17;;;;;;;26.08;19.10;;;3.60;72.40;;;;;;5037630;28;20491;-71
2021/04/09 04:35:42;;;;;;;26.90;20.00;;;3.60;72.50;;;;;;5057867;28;20037;-71
2021/04/09 04:38:08;;;;;;;24.17;18.42;;;3.60;72.60;;;;;;5045785;28;20037;-70
2021/04/09 04:40:34;;;;;;;28.80;20.10;;;3.60;72.60;;;;;;5046318;28;20051;-70
2021/04/09 04:42:59;;;;;;;30.58;20.02;;;3.50;72.60;;;;;;5061199;28;20044;-71
2021/04/09 04:45:25;;;;;;;26.65;19.83;;;3.60;72.80;;;;;;5058748;28;20036;-71
2021/04/09 04:47:51;;;;;;;30.27;20.40;;;3.60;72.90;;;;;;5060737;28;20036;-71
2021/04/09 04:50:16;;;;;;;27.00;19.30;;;3.50;72.90;;;;;;5043281;28;20033;-70
2021/04/09 04:52:42;;;;;;;25.90;19.40;;;3.50;72.90;;;;;;5038697;28;20037;-72
2021/04/09 04:55:08;;;;;;;29.42;19.13;;;3.50;73.00;;;;;;5061992;28;20368;-72
2021/04/09 04:57:34;;;;;;;28.63;19.35;;;3.50;73.10;;;;;;5065449;28;20029;-71
2021/04/09 04:59:59;;;;;;;28.60;19.75;;;3.50;73.20;;;;;;5061058;28;20388;-70
2021/04/09 05:02:25;;;;;;;26.58;19.33;;;3.50;73.20;;;;;;5058218;28;20052;-70
2021/04/09 05:04:51;;;;;;;30.67;19.75;;;3.50;73.30;;;;;;5065916;28;20029;-70
2021/04/09 05:07:16;;;;;;;29.60;20.10;;;3.50;73.40;;;;;;5047145;28;20057;-71
2021/04/09 05:09:42;;;;;;;27.50;19.05;;;3.50;73.30;;;;;;5043441;28;20431;-70
2021/04/09 05:12:08;;;;;;;28.10;19.23;;;3.50;73.40;;;;;;5045798;28;20064;-73
2021/04/09 05:14:33;;;;;;;28.48;20.17;;;3.50;73.40;;;;;;5046136;28;20036;-71
2021/04/09 05:16:59;;;;;;;27.83;20.63;;;3.50;73.50;;;;;;5043702;28;20484;-70
2021/04/09 05:19:25;;;;;;;31.27;20.30;;;3.50;73.70;;;;;;5035720;28;20418;-75
2021/04/09 05:21:50;;;;;;;27.73;20.17;;;3.50;73.90;;;;;;5043881;28;20029;-70
2021/04/09 05:24:16;;;;;;;31.92;19.88;;;3.50;74.00;;;;;;5045290;28;20579;-70
2021/04/09 05:26:42;;;;;;;31.55;20.08;;;3.60;74.10;;;;;;5044128;28;20396;-73
2021/04/09 05:29:07;;;;;;;28.00;19.38;;;3.60;74.00;;;;;;5043648;28;20045;-69
2021/04/09 05:31:34;;;;;;;27.30;20.13;;;3.60;73.80;;;;;;5045070;28;20033;-70
2021/04/09 05:33:59;;;;;;;26.30;19.67;;;3.60;73.60;;;;;;5041736;28;20477;-74
2021/04/09 05:36:25;;;;;;;27.95;19.55;;;3.70;73.60;;;;;;5040567;28;20044;-73
2021/04/09 05:38:51;;;;;;;27.40;19.20;;;3.70;73.50;;;;;;5045002;28;20124;-73
2021/04/09 05:41:16;;;;;;;25.55;18.73;;;3.80;73.60;;;;;;5042753;28;20037;-73
2021/04/09 05:43:42;;;;;;;27.02;17.90;;;3.80;73.40;;;;;;5042666;28;20393;-72
2021/04/09 05:46:08;;;;;;;33.63;21.67;;;3.90;73.30;;;;;;5043920;28;20044;-74
2021/04/09 05:48:34;;;;;;;33.90;24.08;;;4.00;73.10;;;;;;5047029;28;20472;-70
2021/04/09 05:50:59;;;;;;;33.70;23.73;;;4.10;73.00;;;;;;5045889;28;20025;-72
2021/04/09 05:53:25;;;;;;;32.15;22.30;;;4.10;73.00;;;;;;5049677;28;20351;-72
2021/04/09 05:55:51;;;;;;;33.13;21.98;;;4.20;73.00;;;;;;5048402;28;20108;-71
2021/04/09 05:58:16;;;;;;;36.28;23.10;;;4.20;72.90;;;;;;5045854;28;20045;-73
2021/04/09 06:00:42;;;;;;;29.85;20.73;;;4.30;72.50;;;;;;5047323;28;20033;-72
2021/04/09 06:03:08;;;;;;;25.73;19.90;;;4.40;72.20;;;;;;5047467;28;20029;-71
2021/04/09 06:05:33;;;;;;;26.20;19.00;;;4.50;72.40;;;;;;5048309;28;20487;-73
2021/04/09 06:07:59;;;;;;;33.80;22.92;;;4.50;72.20;;;;;;5048662;28;20048;-75
2021/04/09 06:10:25;;;;;;;34.13;22.05;;;4.60;72.00;;;;;;5049411;28;20025;-72
2021/04/09 06:12:51;;;;;;;34.17;22.05;;;4.70;71.80;;;;;;5049199;28;20039;-72
2021/04/09 06:15:17;;;;;;;35.80;22.23;;;4.90;71.70;;;;;;5048141;28;20037;-70
2021/04/09 06:17:44;;;;;;;34.60;20.30;;;4.90;71.60;;;;;;5048021;28;20370;-72
2021/04/09 06:20:09;;;;;;;29.33;20.58;;;5.00;71.00;;;;;;5046758;28;20547;-72
2021/04/09 06:22:35;;;;;;;29.40;21.17;;;5.10;70.90;;;;;;5047525;28;20115;-71
2021/04/09 06:25:04;;;;;;;31.25;20.83;;;5.20;70.50;;;;;;5044190;28;20156;-72
2021/04/09 06:27:30;;;;;;;28.83;21.23;;;5.30;70.40;;;;;;5049513;28;20098;-73
2021/04/09 06:29:55;;;;;;;29.45;21.45;;;5.50;70.30;;;;;;5042541;28;20068;-78
2021/04/09 06:32:21;;;;;;;31.60;20.58;;;5.60;70.00;;;;;;5042721;28;20060;-72
2021/04/09 06:34:47;;;;;;;29.00;20.83;;;5.60;70.00;;;;;;5048496;28;20401;-70
2021/04/09 06:37:12;;;;;;;32.30;21.02;;;5.70;69.70;;;;;;5047024;28;20503;-72
2021/04/09 06:39:38;;;;;;;32.35;19.98;;;5.80;69.40;;;;;;5042721;28;20033;-71
2021/04/09 06:42:06;;;;;;;32.67;21.38;;;5.90;69.10;;;;;;5047783;28;20120;-71
2021/04/09 06:44:32;;;;;;;29.17;19.42;;;5.90;68.70;;;;;;5043108;28;20109;-72
2021/04/09 06:46:58;;;;;;;27.08;20.40;;;6.10;68.80;;;;;;5046253;28;20456;-72
2021/04/09 06:49:25;;;;;;;28.42;19.20;;;6.10;68.70;;;;;;5037456;28;20076;-73
2021/04/09 06:51:51;;;;;;;27.67;18.98;;;6.30;67.70;;;;;;5049581;28;20041;-72
2021/04/09 06:54:17;;;;;;;26.25;17.95;;;6.50;67.60;;;;;;5045593;28;20047;-73
2021/04/09 06:56:46;;;;;;;22.80;17.50;;;6.50;67.30;;;;;;5049199;28;20041;-71
2021/04/09 06:59:17;;;;;;;26.38;19.67;;;6.60;67.20;;;;;;5039344;28;20109;-71
2021/04/09 07:01:45;;;;;;;25.10;19.13;;;6.60;66.70;;;;;;5045759;28;20489;-72
2021/04/09 07:04:14;;;;;;;38.70;18.92;;;6.70;67.00;;;;;;5032542;28;20030;-72
2021/04/09 07:06:40;;;;;;;30.05;18.70;;;6.70;66.50;;;;;;5046254;28;20091;-70
2021/04/09 07:09:07;;;;;;;30.48;18.13;;;6.80;66.30;;;;;;5036312;28;20492;-73
2021/04/09 07:11:36;;;;;;;27.15;17.70;;;6.90;66.30;;;;;;5033856;28;20399;-70
2021/04/09 07:14:02;;;;;;;28.10;18.90;;;7.10;65.60;;;;;;5042077;28;20051;-73
2021/04/09 07:16:28;;;;;;;24.02;18.67;;;7.10;65.60;;;;;;5061189;28;20489;-66
2021/04/09 07:18:57;;;;;;;27.25;17.65;;;7.20;65.50;;;;;;5064229;28;20462;-66
2021/04/09 07:21:28;;;;;;;24.05;16.95;;;7.30;64.80;;;;;;5062039;28;20029;-67
2021/04/09 07:24:13;;;;;;;23.48;15.85;;;7.40;64.10;;;;;;5064673;28;20043;-68
2021/04/09 07:26:44;;;;;;;22.80;16.50;;;7.50;64.00;;;;;;5047414;28;20110;-66
2021/04/09 07:29:40;;;;;;;26.25;18.00;;;7.50;64.10;;;;;;5034693;28;20479;-65
2021/04/09 07:32:14;;;;;;;25.60;17.38;;;7.60;64.10;;;;;;5058943;28;20032;-69
2021/04/09 07:35:10;;;;;;;31.88;18.13;;;7.80;63.90;;;;;;5047979;28;20056;-69
2021/04/09 07:37:58;;;;;;;30.67;19.13;;;8.00;62.90;;;;;;5060120;28;20028;-67
2021/04/09 07:40:30;;;;;;;23.83;16.83;;;8.20;62.70;;;;;;5056142;28;20044;-66
2021/04/09 07:42:57;;;;;;;25.15;16.63;;;8.30;61.90;;;;;;5059523;28;20036;-66
2021/04/09 07:45:25;;;;;;;24.20;16.63;;;8.60;62.30;;;;;;5057646;28;20930;-65
2021/04/09 07:48:01;;;;;;;24.75;16.92;;;8.80;61.40;;;;;;5053302;28;20036;-65
2021/04/09 07:50:45;;;;;;;23.85;17.17;;;9.00;60.80;;;;;;5064961;28;20039;-65
2021/04/09 07:53:17;;;;;;;22.77;16.40;;;9.20;59.90;;;;;;5061175;28;20222;-67
2021/04/09 07:55:43;;;;;;;23.77;16.08;;;9.20;60.20;;;;;;5046327;28;20040;-65
2021/04/09 07:58:25;;;;;;;23.88;16.38;;;9.40;59.80;;;;;;5059813;28;20040;-65
2021/04/09 08:00:52;;;;;;;22.52;15.15;;;9.50;58.70;;;;;;5048144;28;20063;-67
2021/04/09 08:03:40;;;;;;;21.00;15.07;;;9.60;58.50;;;;;;5056794;28;20272;-66
2021/04/09 08:06:15;;;;;;;24.80;15.88;;;9.60;58.40;;;;;;5056585;28;20053;-67
2021/04/09 08:08:57;;;;;;;26.60;17.88;;;9.60;58.60;;;;;;5058339;28;20039;-67
2021/04/09 08:11:29;;;;;;;22.60;14.70;;;9.70;58.60;;;;;;5062087;28;20028;-67
2021/04/09 08:14:06;;;;;;;19.05;13.93;;;9.70;58.20;;;;;;5065130;28;20047;-66
2021/04/09 08:16:46;;;;;;;21.08;15.13;;;9.90;58.70;;;;;;5043285;28;20051;-67
2021/04/09 08:19:14;;;;;;;20.48;14.90;;;10.10;57.50;;;;;;5045679;28;20130;-67
2021/04/09 08:21:47;;;;;;;20.45;14.45;;;10.10;57.80;;;;;;5042188;28;20068;-68
2021/04/09 08:24:14;;;;;;;20.83;15.07;;;10.20;57.40;;;;;;5040653;28;20060;-68
2021/04/09 08:26:40;;;;;;;24.58;13.88;;;10.30;56.70;;;;;;5037081;28;20044;-70
2021/04/09 08:29:08;;;;;;;22.77;14.93;;;10.40;56.90;;;;;;5035655;28;20496;-69
2021/04/09 08:31:36;;;;;;;23.33;14.40;;;10.50;56.30;;;;;;5033991;28;20041;-69
2021/04/09 08:34:02;;;;;;;19.75;13.55;;;10.70;55.70;;;;;;5050820;28;20052;-68
2021/04/09 08:36:30;;;;;;;22.13;13.50;;;10.60;55.10;;;;;;5059645;28;20041;-68
2021/04/09 08:38:56;;;;;;;24.80;14.82;;;10.70;55.40;;;;;;5056607;28;20398;-70
2021/04/09 08:41:22;;;;;;;21.27;14.55;;;10.80;55.50;;;;;;5056721;28;20041;-68
2021/04/09 08:43:48;;;;;;;20.65;13.52;;;11.10;55.00;;;;;;5055273;28;20028;-66
2021/04/09 08:46:15;;;;;;;21.67;14.05;;;11.20;54.10;;;;;;5056549;28;20222;-68
2021/04/09 08:48:41;;;;;;;19.52;13.10;;;11.40;53.60;;;;;;5056287;28;20048;-70
2021/04/09 08:51:09;;;;;;;21.33;13.93;;;11.60;54.20;;;;;;5056059;28;20032;-68
2021/04/09 08:53:35;;;;;;;19.92;13.75;;;11.70;52.90;;;;;;5058371;28;20085;-68
2021/04/09 08:56:02;;;;;;;23.35;15.65;;;11.80;53.20;;;;;;5039332;28;20040;-69
2021/04/09 08:58:30;;;;;;;23.73;14.90;;;12.00;53.10;;;;;;5062898;28;20028;-71
2021/04/09 09:01:10;;;;;;;19.60;13.18;;;12.10;53.40;;;;;;5048042;28;20036;-72
2021/04/09 09:03:36;;;;;;;19.95;13.93;;;12.40;51.80;;;;;;5055098;28;20457;-71
2021/04/09 09:06:06;;;;;;;17.98;12.82;;;12.40;51.70;;;;;;5052277;28;20075;-69
2021/04/09 09:08:41;;;;;;;19.15;13.15;;;12.50;51.40;;;;;;5055814;28;20050;-68
2021/04/09 09:11:07;;;;;;;;;;;12.50;51.80;;;;;;5053862;28;20503;-70
2021/04/09 09:13:48;;;;;;;21.40;13.80;;;12.20;51.30;;;;;;5058739;28;20544;-72
2021/04/09 09:16:18;;;;;;;22.55;13.70;;;12.30;51.50;;;;;;5058812;28;20045;-68
2021/04/09 09:18:56;;;;;;;19.30;12.85;;;12.20;51.90;;;;;;5051368;28;20036;-71
2021/04/09 09:21:28;;;;;;;17.42;12.55;;;12.30;52.00;;;;;;5038150;28;20146;-69
2021/04/09 09:23:57;;;;;;;21.20;12.98;;;12.70;51.30;;;;;;5043885;28;20063;-68
2021/04/09 09:26:31;;;;;;;18.70;12.75;;;13.00;50.50;;;;;;5043792;28;20129;-68
2021/04/09 09:29:21;;;;;;;19.23;13.75;;;13.10;50.40;;;;;;5065456;28;20044;-68
2021/04/09 09:31:56;;;;;;;19.55;11.98;;;13.30;49.70;;;;;;5050463;28;20037;-68
2021/04/09 09:34:23;;;;;;;;;;;13.40;49.60;;;;;;5057370;28;20032;-69
2021/04/09 09:37:12;;;;;;;20.88;13.15;;;13.70;48.40;;;;;;5055282;28;19917;-69
2021/04/09 09:39:51;;;;;;;20.08;11.95;;;13.70;48.00;;;;;;5057593;28;20040;-69
2021/04/09 09:42:20;;;;;;;23.52;12.02;;;14.00;47.10;;;;;;5044717;28;20053;-70
2021/04/09 09:44:54;;;;;;;20.33;13.23;;;14.10;47.20;;;;;;5059016;28;20059;-68
2021/04/09 09:47:25;;;;;;;17.57;10.80;;;14.10;47.80;;;;;;5059032;28;20064;-71
2021/04/09 09:50:04;;;;;;;14.05;9.43;;;14.10;46.90;;;;;;5061324;28;20055;-71
2021/04/09 09:53:00;;;;;;;18.38;10.77;;;13.80;47.30;;;;;;5057112;28;20163;-74
2021/04/09 09:55:37;;;;;;;16.92;9.25;;;13.60;48.70;;;;;;5038135;28;20037;-71
2021/04/09 09:58:24;;;;;;;13.30;8.00;;;13.40;48.20;;;;;;5038888;28;20048;-76
2021/04/09 10:01:01;;;;;;;18.55;8.82;;;13.60;48.30;;;;;;5041015;28;20037;-70
2021/04/09 10:03:34;;;;;;;10.70;7.85;;;13.60;47.50;;;;;;5037304;28;20034;-77
2021/04/09 10:06:04;;;;;;;11.95;8.00;;;13.80;47.00;;;;;;5039591;28;20037;-72
2021/04/09 10:08:35;;;;;;;11.63;6.93;;;14.10;46.70;;;;;;5039386;28;21277;-69
2021/04/09 10:11:02;;;;;;;11.00;6.15;;;14.30;46.90;;;;;;5040223;28;20151;-69
2021/04/09 10:13:39;;;;;;;11.60;6.72;;;14.80;45.10;;;;;;5038815;28;20039;-69
2021/04/09 10:16:19;;;;;;;10.43;6.03;;;14.50;45.30;;;;;;5040442;28;20037;-71
2021/04/09 10:18:48;;;;;;;9.75;5.70;;;14.50;45.20;;;;;;5036896;28;20038;-70
2021/04/09 10:21:17;;;;;;;12.10;5.75;;;14.60;45.10;;;;;;5036540;28;20690;-70
2021/04/09 10:23:45;;;;;;;9.57;5.75;;;14.80;44.20;;;;;;5037138;28;20040;-70
2021/04/09 10:26:12;;;;;;;10.43;5.90;;;15.00;44.20;;;;;;5037893;28;20087;-69
2021/04/09 10:28:39;;;;;;;10.95;6.32;;;15.10;43.60;;;;;;5039306;28;20049;-69
2021/04/09 10:31:25;;;;;;;11.57;5.57;;;15.30;42.90;;;;;;5037488;28;20476;-70
2021/04/09 10:33:56;;;;;;;10.38;6.00;;;14.60;44.00;;;;;;5036624;28;20091;-71
2021/04/09 10:36:27;;;;;;;13.48;6.45;;;14.40;44.80;;;;;;5035713;28;20124;-73
2021/04/09 10:38:59;;;;;;;11.85;6.38;;;14.60;44.00;;;;;;5040392;28;20133;-69
2021/04/09 10:41:28;;;;;;;11.35;6.15;;;15.00;42.40;;;;;;5042227;28;20106;-68
2021/04/09 10:43:59;;;;;;;11.63;5.70;;;15.40;42.30;;;;;;5036715;28;20033;-69
2021/04/09 10:46:27;;;;;;;10.07;6.00;;;15.80;41.80;;;;;;5040828;28;20597;-70
2021/04/09 10:49:11;;;;;;;9.68;5.55;;;15.80;40.50;;;;;;5044777;28;21354;-69
2021/04/09 10:51:50;;;;;;;10.43;6.43;;;15.50;40.80;;;;;;5040424;28;20057;-69
2021/04/09 10:54:21;;;;;;;10.88;6.03;;;15.40;41.10;;;;;;5028831;28;20388;-69
2021/04/09 10:56:56;;;;;;;14.05;6.60;;;15.30;40.90;;;;;;5040577;28;20029;-69
2021/04/09 10:59:30;;;;;;;10.32;6.25;;;15.40;40.80;;;;;;5023829;28;20037;-70
2021/04/09 11:01:58;;;;;;;11.77;6.35;;;15.20;41.50;;;;;;5034029;28;20128;-73
2021/04/09 11:04:25;;;;;;;11.20;6.35;;;15.20;41.30;;;;;;5037411;28;20033;-72
2021/04/09 11:06:52;;;;;;;8.85;5.80;;;15.00;42.30;;;;;;5034298;28;20037;-71
2021/04/09 11:09:19;;;;;;;12.20;6.63;;;15.20;41.60;;;;;;5036855;28;20041;-75
2021/04/09 11:11:44;;;;;;;15.38;6.90;;;15.40;41.20;;;;;;5040224;28;20029;-73
2021/04/09 11:14:17;;;;;;;12.45;6.35;;;15.60;40.90;;;;;;5033585;28;20389;-72
2021/04/09 11:16:57;;;;;;;12.95;5.95;;;16.00;40.70;;;;;;5034854;28;20038;-67
2021/04/09 11:19:26;;;;;;;9.77;6.28;;;16.00;39.80;;;;;;5040072;28;20033;-67
2021/04/09 11:21:54;;;;;;;10.32;6.28;;;16.00;40.60;;;;;;5040548;28;20037;-69
2021/04/09 11:24:33;;;;;;;10.02;6.20;;;16.10;40.00;;;;;;5039331;28;20036;-69
2021/04/09 11:27:01;;;;;;;11.13;6.47;;;15.80;40.30;;;;;;5042260;28;20051;-68
2021/04/09 11:29:31;;;;;;;9.52;5.78;;;15.60;39.80;;;;;;5047882;28;20091;-69
2021/04/09 11:32:12;;;;;;;11.80;6.55;;;15.30;41.20;;;;;;5041828;28;20471;-71
2021/04/09 11:34:42;;;;;;;11.95;6.65;;;15.30;41.20;;;;;;5060741;28;20052;-71
2021/04/09 11:37:10;;;;;;;13.25;6.53;;;15.50;41.70;;;;;;5050301;28;20515;-69
2021/04/09 11:39:48;;;;;;;12.02;6.15;;;15.70;40.80;;;;;;5049590;28;20040;-69
2021/04/09 11:42:13;;;;;;;11.43;6.38;;;16.00;41.20;;;;;;5045778;28;20520;-73
2021/04/09 11:44:40;;;;;;;13.40;7.28;;;16.30;40.40;;;;;;5060318;28;20039;-75
2021/04/09 11:47:23;;;;;;;11.35;6.20;;;16.10;39.90;;;;;;5060207;28;20120;-71
2021/04/09 11:50:09;;;;;;;11.90;6.13;;;16.20;40.60;;;;;;5062626;28;20086;-71
2021/04/09 11:53:03;;;;;;;10.95;6.18;;;15.60;41.80;;;;;;5047267;28;20130;-70
2021/04/09 11:55:38;;;;;;;11.15;6.75;;;15.70;41.60;;;;;;5055422;28;20033;-70
2021/04/09 11:58:16;;;;;;;11.02;6.53;;;15.70;41.70;;;;;;5062862;28;20052;-71
2021/04/09 12:01:02;;;;;;;14.40;7.30;;;16.10;40.90;;;;;;5058036;28;20111;-71
2021/04/09 12:03:38;;;;;;;13.20;7.55;;;16.40;40.60;;;;;;5064483;28;20025;-70
2021/04/09 12:06:18;;;;;;;14.30;7.03;;;16.50;41.00;;;;;;5061894;28;20050;-71
2021/04/09 12:08:44;;;;;;;14.65;8.75;;;16.70;40.80;;;;;;5043384;28;20056;-70
2021/04/09 12:11:11;;;;;;;13.27;7.50;;;16.40;41.00;;;;;;5053004;28;20032;-73
2021/04/09 12:13:38;;;;;;;13.35;7.47;;;16.20;40.80;;;;;;5054081;28;20475;-71
2021/04/09 12:16:07;;;;;;;12.40;7.78;;;16.30;41.30;;;;;;5066485;28;20087;-72
2021/04/09 12:18:32;;;;;;;14.05;7.35;;;15.80;41.70;;;;;;5046252;28;20036;-72
2021/04/09 12:20:58;;;;;;;13.95;7.43;;;15.50;42.30;;;;;;5041564;28;21015;-71
2021/04/09 12:23:25;;;;;;;25.60;9.48;;;15.80;42.90;;;;;;5037378;28;20040;-73
2021/04/09 12:25:53;;;;;;;13.70;7.95;;;16.10;42.10;;;;;;5041616;28;20132;-73
2021/04/09 12:28:19;;;;;;;12.75;7.30;;;16.60;40.80;;;;;;5042881;28;20053;-69
2021/04/09 12:30:45;;;;;;;13.00;7.97;;;16.60;41.10;;;;;;5037882;28;20052;-70
2021/04/09 12:33:10;;;;;;;11.60;7.68;;;16.60;41.50;;;;;;5029308;28;20408;-69
2021/04/09 12:35:36;;;;;;;13.02;7.85;;;16.30;41.10;;;;;;5037161;28;20461;-70
2021/04/09 12:38:01;;;;;;;10.52;6.97;;;16.50;41.40;;;;;;5040564;28;20373;-70
2021/04/09 12:40:27;;;;;;;11.32;7.10;;;17.00;40.90;;;;;;5036006;28;20033;-70
2021/04/09 12:42:53;;;;;;;13.45;7.30;;;16.90;40.00;;;;;;5034762;28;20029;-71
2021/04/09 12:45:18;;;;;;;12.63;7.28;;;16.90;40.10;;;;;;5035527;28;20033;-69
2021/04/09 12:47:44;;;;;;;12.32;7.78;;;16.80;39.90;;;;;;5038059;28;20057;-69